PWSweather.com
Personal Weather Stations
Station Observations

AwhituWaiuku, CA 268400

Lat: -37.058, Lon: -174.6346

Elevation: 250

Station Type: Personal

http://www.weather-display.com/windy/gb/grahamsbeach.htm

Latest ConditionsUpdated 3:01:12 PM GMT-12:48 Thursday, Apr 24, 2014
Currently Today's Max Today's Min Today's Average
Temperature 68.4°F20.2°C 70.0°F21.1°C 61.4°F16.3°C 64.5°F18.1°C
Dew Point 66.9°F19.4°C 67.2°F19.6°C 60.8°F16.0°C 63.5°F17.5°C
Winds 18.3 mph WNW29.5 kmh WNW 65.0 mph NW104.6 kmh NW - 24.4 mph 39.3 kmh
Wind Gusts 24.0 mph38.6 kmh 65.0 mph104.6 kmh - -
Humidity 95% 98% 87% 97%
Pressure 30.06 in1017.9 mb 30.13 in1020.3 mb 30.06 in1017.9 mb -
Precipitation - 0.01 in0.3 mm - -
Hour Temp Dew Point Humidity Winds Wind Gusts Pressure Precip Precip Rate Daily Precip Total
03:01 PM 68.4°F20.2°C 66.9°F19.4°C 95% 18.3 mph WNW29.5 kmh WNW 24.0 mph38.6 kmh 30.06 in1017.9 mb 0.00 in0.0 mm 0.00 in/hr0.0 mm/hr 0.01 in0.3 mm
02:30 PM 70.0°F21.1°C 66.0°F18.9°C 87% 18.2 mph W29.3 kmh W 21.0 mph33.8 kmh 30.06 in1017.9 mb 0.00 in0.0 mm 0.00 in/hr0.0 mm/hr 0.01 in0.3 mm
02:01 PM 68.0°F20.0°C 65.6°F18.7°C 92% 18.7 mph W30.1 kmh W 23.0 mph37.0 kmh 30.07 in1018.3 mb 0.00 in0.0 mm 0.00 in/hr0.0 mm/hr 0.01 in0.3 mm
01:30 PM 68.9°F20.5°C 66.5°F19.2°C 92% 20.4 mph W32.8 kmh W 24.0 mph38.6 kmh 30.08 in1018.6 mb 0.00 in0.0 mm 0.00 in/hr0.0 mm/hr 0.01 in0.3 mm
01:01 PM 70.0°F21.1°C 67.2°F19.6°C 91% 20.0 mph W32.2 kmh W 22.0 mph35.4 kmh 30.09 in1019.0 mb 0.00 in0.0 mm 0.00 in/hr0.0 mm/hr 0.01 in0.3 mm
12:30 PM 69.2°F20.7°C 66.5°F19.2°C 91% 19.6 mph W31.5 kmh W 24.0 mph38.6 kmh 30.10 in1019.3 mb 0.00 in0.0 mm 0.00 in/hr0.0 mm/hr 0.01 in0.3 mm
12:01 PM 67.8°F19.9°C 67.0°F19.4°C 97% 23.0 mph W37.0 kmh W 28.0 mph45.1 kmh 30.11 in1019.6 mb 0.00 in0.0 mm 0.00 in/hr0.0 mm/hr 0.01 in0.3 mm
11:30 AM 66.3°F19.1°C 65.8°F18.8°C 98% 18.9 mph W30.4 kmh W 23.0 mph37.0 kmh 30.12 in1020.0 mb 0.00 in0.0 mm 0.00 in/hr0.0 mm/hr 0.01 in0.3 mm
11:01 AM 68.0°F20.0°C 66.9°F19.4°C 96% 14.0 mph W22.5 kmh W 18.0 mph29.0 kmh 30.13 in1020.3 mb 0.00 in0.0 mm 0.00 in/hr0.0 mm/hr 0.01 in0.3 mm
10:30 AM 67.7°F19.8°C 67.1°F19.5°C 98% 16.1 mph W25.9 kmh W 22.0 mph35.4 kmh 30.12 in1020.0 mb 0.00 in0.0 mm 0.00 in/hr0.0 mm/hr 0.01 in0.3 mm
10:01 AM 66.6°F19.2°C 66.0°F18.9°C 98% 17.1 mph WNW27.5 kmh WNW 20.0 mph32.2 kmh 30.13 in1020.3 mb 0.00 in0.0 mm 0.00 in/hr0.0 mm/hr 0.01 in0.3 mm
09:30 AM 64.9°F18.3°C 64.3°F17.9°C 98% 16.5 mph WSW26.6 kmh WSW 21.0 mph33.8 kmh 30.12 in1020.0 mb 0.00 in0.0 mm 0.00 in/hr0.0 mm/hr 0.01 in0.3 mm
09:01 AM 64.1°F17.8°C 63.5°F17.5°C 98% 17.3 mph WNW27.8 kmh WNW 21.0 mph33.8 kmh 30.13 in1020.3 mb 0.00 in0.0 mm 0.00 in/hr0.0 mm/hr 0.01 in0.3 mm
08:31 AM 63.3°F17.4°C 62.7°F17.1°C 98% 14.3 mph NW23.0 kmh NW 17.0 mph27.4 kmh 30.12 in1020.0 mb 0.00 in0.0 mm 0.00 in/hr0.0 mm/hr 0.01 in0.3 mm
08:01 AM 62.2°F16.8°C 61.6°F16.4°C 98% 9.0 mph NW14.5 kmh NW 9.0 mph14.5 kmh 30.11 in1019.6 mb 0.00 in0.0 mm 0.00 in/hr0.0 mm/hr 0.01 in0.3 mm
07:30 AM 61.9°F16.6°C 61.3°F16.3°C 98% 9.5 mph WNW15.3 kmh WNW 14.0 mph22.5 kmh 30.11 in1019.6 mb 0.00 in0.0 mm 0.00 in/hr0.0 mm/hr 0.01 in0.3 mm
07:01 AM 61.6°F16.4°C 61.0°F16.1°C 98% 7.1 mph WNW11.4 kmh WNW 8.0 mph12.9 kmh 30.10 in1019.3 mb 0.00 in0.0 mm 0.00 in/hr0.0 mm/hr 0.01 in0.3 mm
06:31 AM 62.2°F16.8°C 61.6°F16.4°C 98% 10.4 mph WNW16.7 kmh WNW 13.0 mph20.9 kmh 30.09 in1019.0 mb 0.00 in0.0 mm 0.00 in/hr0.0 mm/hr 0.01 in0.3 mm
06:01 AM 61.4°F16.3°C 60.8°F16.0°C 98% 15.6 mph WNW25.1 kmh WNW 17.0 mph27.4 kmh 30.09 in1019.0 mb 0.00 in0.0 mm 0.00 in/hr0.0 mm/hr 0.01 in0.3 mm
05:30 AM 61.7°F16.5°C 61.1°F16.2°C 98% 65.0 mph W104.6 kmh W 65.0 mph104.6 kmh 30.09 in1019.0 mb 0.00 in0.0 mm 0.00 in/hr0.0 mm/hr 0.01 in0.3 mm
05:01 AM 61.9°F16.6°C 61.3°F16.3°C 98% 65.0 mph NW104.6 kmh NW 65.0 mph104.6 kmh 30.10 in1019.3 mb 0.01 in0.3 mm 0.02 in/hr0.5 mm/hr 0.01 in0.3 mm
04:30 AM 62.6°F17.0°C 62.0°F16.7°C 98% 65.0 mph WSW104.6 kmh WSW 65.0 mph104.6 kmh 30.10 in1019.3 mb 0.00 in0.0 mm 0.00 in/hr0.0 mm/hr 0.00 in0.0 mm
04:01 AM 62.8°F17.1°C 62.2°F16.8°C 98% 65.0 mph WNW104.6 kmh WNW 65.0 mph104.6 kmh 30.10 in1019.3 mb 0.00 in0.0 mm 0.00 in/hr0.0 mm/hr 0.00 in0.0 mm
03:30 AM 62.2°F16.8°C 61.7°F16.5°C 98% 65.0 mph NW104.6 kmh NW 65.0 mph104.6 kmh 30.11 in1019.6 mb 0.00 in0.0 mm 0.00 in/hr0.0 mm/hr 0.00 in0.0 mm
03:01 AM 62.2°F16.8°C 61.6°F16.4°C 98% 65.0 mph NW104.6 kmh NW 65.0 mph104.6 kmh 30.11 in1019.6 mb 0.00 in0.0 mm 0.00 in/hr0.0 mm/hr 0.00 in0.0 mm
02:31 AM 62.4°F16.9°C 61.9°F16.6°C 98% 7.8 mph NW12.6 kmh NW 7.8 mph12.6 kmh 30.12 in1020.0 mb 0.00 in0.0 mm 0.00 in/hr0.0 mm/hr 0.00 in0.0 mm
02:01 AM 62.2°F16.8°C 61.6°F16.4°C 98% 7.8 mph NW12.6 kmh NW 7.8 mph12.6 kmh 30.13 in1020.3 mb 0.00 in0.0 mm 0.00 in/hr0.0 mm/hr 0.00 in0.0 mm
01:30 AM 62.1°F16.7°C 61.5°F16.4°C 98% 7.8 mph WNW12.6 kmh WNW 7.8 mph12.6 kmh 30.12 in1020.0 mb 0.00 in0.0 mm 0.00 in/hr0.0 mm/hr 0.00 in0.0 mm
01:01 AM 61.7°F16.5°C 61.1°F16.2°C 98% 7.8 mph WNW12.6 kmh WNW 7.8 mph12.6 kmh 30.12 in1020.0 mb 0.00 in0.0 mm 0.00 in/hr0.0 mm/hr 0.00 in0.0 mm
12:01 AM 61.9°F16.6°C 61.3°F16.3°C 98% 8.2 mph W13.2 kmh W 10.0 mph16.1 kmh 30.12 in1020.0 mb 0.00 in0.0 mm 0.00 in/hr0.0 mm/hr 0.00 in0.0 mm